createdAt,value
2023-04-16T00:00:03.637Z,102048.94
2023-04-16T00:02:39.361Z,102038.03
2023-04-16T00:05:07.552Z,102039.78
2023-04-16T00:07:35.338Z,102045.22
2023-04-16T00:10:03.063Z,102044.47
2023-04-16T00:12:30.704Z,102040.84
2023-04-16T00:14:58.487Z,102038.16
2023-04-16T00:17:26.113Z,102043.50
2023-04-16T00:19:53.728Z,102037.72
2023-04-16T00:22:21.320Z,102038.91
2023-04-16T00:24:48.966Z,102045.28
2023-04-16T00:27:16.594Z,102051.50
2023-04-16T00:29:44.254Z,102048.72
2023-04-16T00:32:12.322Z,102043.59
2023-04-16T00:34:39.856Z,102051.69
2023-04-16T00:37:07.415Z,102042.72
2023-04-16T00:39:35.301Z,102044.53
2023-04-16T00:42:03.100Z,102045.59
2023-04-16T00:44:30.633Z,102040.56
2023-04-16T00:46:59.656Z,102042.38
2023-04-16T00:49:27.886Z,102039.06
2023-04-16T00:51:57.765Z,102046.31
2023-04-16T00:54:26.282Z,102051.97
2023-04-16T00:56:54.197Z,102060.84
2023-04-16T00:59:22.005Z,102056.56
2023-04-16T01:01:50.386Z,102056.50
2023-04-16T01:04:18.367Z,102046.53
2023-04-16T01:06:46.003Z,102052.25
2023-04-16T01:09:15.991Z,102048.09
2023-04-16T01:11:43.616Z,102053.50
2023-04-16T01:14:11.179Z,102047.50
2023-04-16T01:16:38.950Z,102047.03
2023-04-16T01:19:07.780Z,102046.50
2023-04-16T01:21:35.872Z,102044.88
2023-04-16T01:24:04.807Z,102044.88
2023-04-16T01:26:33.488Z,102046.59
2023-04-16T01:29:01.348Z,102046.59
2023-04-16T01:31:29.003Z,102043.25
2023-04-16T01:34:02.399Z,102040.66
2023-04-16T01:36:30.683Z,102046.13
2023-04-16T01:38:58.392Z,102043.56
2023-04-16T01:41:26.704Z,102037.44
2023-04-16T01:43:54.270Z,102032.09
2023-04-16T01:46:28.067Z,102027.31
2023-04-16T01:48:56.606Z,102026.19
2023-04-16T01:51:24.768Z,102018.91
2023-04-16T01:58:07.487Z,102026.91
2023-04-16T02:00:35.851Z,102019.03
2023-04-16T02:03:04.030Z,102024.44
2023-04-16T02:05:31.808Z,102022.53
2023-04-16T02:07:59.362Z,102023.50
2023-04-16T02:10:26.951Z,102031.53
2023-04-16T02:12:54.913Z,102032.25
2023-04-16T02:15:24.018Z,102036.66
2023-04-16T02:17:56.751Z,102034.94
2023-04-16T02:20:25.733Z,102029.41
2023-04-16T02:22:57.165Z,102035.50
2023-04-16T02:25:25.494Z,102026.91
2023-04-16T02:27:55.777Z,102025.53
2023-04-16T02:30:36.749Z,102031.78
2023-04-16T02:33:07.400Z,102029.13
2023-04-16T02:35:37.022Z,102030.75
2023-04-16T02:38:05.503Z,102036.94
2023-04-16T02:40:33.551Z,102038.09
2023-04-16T02:43:01.536Z,102030.41
2023-04-16T02:45:31.550Z,102033.25
2023-04-16T02:48:00.053Z,102031.53
2023-04-16T02:50:27.776Z,102034.19
2023-04-16T02:52:55.443Z,102032.50
2023-04-16T02:55:23.110Z,102032.31
2023-04-16T02:57:50.900Z,102034.84
2023-04-16T03:00:19.067Z,102027.63
2023-04-16T03:02:46.850Z,102029.50
2023-04-16T03:05:14.611Z,102026.84
2023-04-16T03:07:42.214Z,102024.28
2023-04-16T03:10:10.219Z,102011.78
2023-04-16T03:12:37.845Z,102019.72
2023-04-16T03:15:07.978Z,102016.28
2023-04-16T03:17:35.840Z,102021.69
2023-04-16T03:20:04.144Z,102027.03
2023-04-16T03:22:31.821Z,102024.19
2023-04-16T03:24:59.354Z,102030.41
2023-04-16T03:27:27.040Z,102036.59
2023-04-16T03:29:54.789Z,102023.25
2023-04-16T03:32:22.385Z,102016.28
2023-04-16T03:34:49.961Z,102023.63
2023-04-16T03:37:17.831Z,102014.09
2023-04-16T03:39:45.531Z,102013.22
2023-04-16T03:42:13.475Z,102015.03
2023-04-16T03:44:42.005Z,102019.44
2023-04-16T03:47:10.128Z,102020.97
2023-04-16T03:49:38.543Z,102019.03
2023-04-16T03:52:07.038Z,102017.31
2023-04-16T03:54:34.680Z,102018.28
2023-04-16T03:57:14.376Z,102022.00
2023-04-16T03:59:42.040Z,102020.09
2023-04-16T04:02:09.754Z,102017.44
2023-04-16T04:04:37.595Z,102015.63
2023-04-16T04:07:05.239Z,102004.94
2023-04-16T04:09:34.114Z,102017.25
2023-04-16T04:12:03.984Z,102019.72
2023-04-16T04:14:33.195Z,102013.50
2023-04-16T04:17:00.824Z,102008.28
2023-04-16T04:19:28.398Z,102010.16
2023-04-16T04:21:55.913Z,102009.69
2023-04-16T04:24:23.562Z,102013.53
2023-04-16T04:26:51.268Z,102000.38
2023-04-16T04:29:18.817Z,102004.75
2023-04-16T04:31:47.081Z,101995.88
2023-04-16T04:34:14.768Z,101995.22
2023-04-16T04:36:42.302Z,101991.13
2023-04-16T04:39:10.063Z,101996.28
2023-04-16T04:41:37.953Z,101994.38
2023-04-16T04:44:05.545Z,102000.69
2023-04-16T04:46:33.139Z,101997.16
2023-04-16T04:49:00.714Z,101988.38
2023-04-16T04:51:28.323Z,101984.94
2023-04-16T04:53:55.828Z,101982.19
2023-04-16T04:56:23.837Z,101992.75
2023-04-16T04:58:51.502Z,102000.56
2023-04-16T05:01:20.968Z,101999.41
2023-04-16T05:03:48.762Z,101997.63
2023-04-16T05:06:16.761Z,102002.19
2023-04-16T05:08:44.356Z,101995.88
2023-04-16T05:11:11.973Z,101999.53
2023-04-16T05:13:39.549Z,102004.94
2023-04-16T05:16:07.732Z,102005.91
2023-04-16T05:18:35.399Z,102015.63
2023-04-16T05:21:02.905Z,102013.84
2023-04-16T05:23:30.475Z,102006.75
2023-04-16T05:25:58.000Z,102018.09
2023-04-16T05:28:25.591Z,102012.75
2023-04-16T05:30:53.133Z,102023.44
2023-04-16T05:33:21.081Z,102019.16
2023-04-16T05:35:48.736Z,102025.25
2023-04-16T05:38:16.256Z,102028.78
2023-04-16T05:40:43.801Z,102030.03
2023-04-16T05:43:11.529Z,102022.41
2023-04-16T05:45:41.345Z,102019.75
2023-04-16T05:48:09.417Z,102028.59
2023-04-16T05:50:37.078Z,102031.09
2023-04-16T05:53:07.042Z,102030.91
2023-04-16T05:55:37.283Z,102026.88
2023-04-16T05:58:05.206Z,102032.13
2023-04-16T06:00:33.315Z,102042.03
2023-04-16T06:03:01.465Z,102036.69
2023-04-16T06:05:29.404Z,102039.25
2023-04-16T06:07:57.081Z,102042.81
2023-04-16T06:10:24.639Z,102046.03
2023-04-16T06:12:52.162Z,102042.13
2023-04-16T06:15:19.787Z,102049.75
2023-04-16T06:17:47.418Z,102041.44
2023-04-16T06:20:15.019Z,102046.69
2023-04-16T06:22:42.638Z,102051.91
2023-04-16T06:25:10.232Z,102059.84
2023-04-16T06:27:37.841Z,102064.22
2023-04-16T06:30:11.369Z,102066.91
2023-04-16T06:32:39.191Z,102069.47
2023-04-16T06:35:07.320Z,102059.63
2023-04-16T06:37:35.511Z,102062.22
2023-04-16T06:40:03.196Z,102062.69
2023-04-16T06:42:31.064Z,102070.38
2023-04-16T06:44:58.609Z,102058.97
2023-04-16T06:47:27.173Z,102064.50
2023-04-16T06:49:54.859Z,102065.34
2023-04-16T06:52:22.501Z,102061.31
2023-04-16T06:54:50.027Z,102065.69
2023-04-16T06:57:17.594Z,102063.13
2023-04-16T06:59:45.106Z,102062.09
2023-04-16T07:02:12.881Z,102077.34
2023-04-16T07:04:40.741Z,102067.44
2023-04-16T07:07:09.158Z,102076.09
2023-04-16T07:09:36.730Z,102083.28
2023-04-16T07:12:04.437Z,102080.41
2023-04-16T07:14:31.979Z,102084.47
2023-04-16T07:16:59.629Z,102079.59
2023-04-16T07:19:30.645Z,102076.13
2023-04-16T07:21:59.576Z,102079.81
2023-04-16T07:24:27.337Z,102081.69
2023-04-16T07:26:54.965Z,102082.44
2023-04-16T07:29:22.614Z,102081.44
2023-04-16T07:31:50.471Z,102077.09
2023-04-16T07:34:18.179Z,102079.88
2023-04-16T07:36:45.835Z,102073.91
2023-04-16T07:39:13.471Z,102074.97
2023-04-16T07:41:41.337Z,102073.91
2023-04-16T07:44:09.457Z,102073.25
2023-04-16T07:46:46.436Z,102074.94
2023-04-16T07:49:15.661Z,102086.06
2023-04-16T07:51:43.481Z,102092.50
2023-04-16T07:54:11.135Z,102101.69
2023-04-16T07:56:38.885Z,102101.22
2023-04-16T07:59:20.912Z,102111.91
2023-04-16T08:01:50.253Z,102115.53
2023-04-16T08:04:23.309Z,102116.16
2023-04-16T08:06:52.042Z,102108.25
2023-04-16T08:09:21.153Z,102100.88
2023-04-16T08:11:49.973Z,102108.81
2023-04-16T08:14:18.145Z,102110.47
2023-04-16T08:16:45.776Z,102104.38
2023-04-16T08:19:13.469Z,102105.31
2023-04-16T08:21:41.471Z,102108.00
2023-04-16T08:24:09.083Z,102107.28
2023-04-16T08:26:36.639Z,102114.47
2023-04-16T08:29:04.188Z,102115.84
2023-04-16T08:31:32.184Z,102115.13
2023-04-16T08:34:00.885Z,102116.19
2023-04-16T08:36:28.620Z,102125.94
2023-04-16T08:38:56.267Z,102115.84
2023-04-16T08:41:25.161Z,102112.84
2023-04-16T08:43:56.492Z,102114.47
2023-04-16T08:46:26.834Z,102122.25
2023-04-16T08:48:58.272Z,102127.59
2023-04-16T08:51:29.582Z,102123.44
2023-04-16T08:54:04.297Z,102122.38
2023-04-16T08:56:36.529Z,102120.31
2023-04-16T08:59:07.610Z,102123.75
2023-04-16T09:01:36.403Z,102121.19
2023-04-16T09:04:05.225Z,102128.28
2023-04-16T09:06:35.219Z,102121.81
2023-04-16T09:09:04.940Z,102126.63
2023-04-16T09:11:32.979Z,102117.50
2023-04-16T09:14:01.566Z,102124.03
2023-04-16T09:16:34.214Z,102121.13
2023-04-16T09:19:02.366Z,102121.97
2023-04-16T09:21:30.086Z,102124.97
2023-04-16T09:23:58.463Z,102132.59
2023-04-16T09:26:27.415Z,102124.72
2023-04-16T09:28:55.221Z,102127.47
2023-04-16T09:31:22.795Z,102122.41
2023-04-16T09:34:09.778Z,102125.81
2023-04-16T09:36:37.547Z,102120.03
2023-04-16T09:39:05.079Z,102130.72
2023-04-16T09:41:39.737Z,102134.06
2023-04-16T09:44:07.394Z,102139.31
2023-04-16T09:46:42.921Z,102138.88
2023-04-16T09:49:15.029Z,102149.06
2023-04-16T09:51:44.379Z,102150.06
2023-04-16T09:54:12.035Z,102143.16
2023-04-16T09:56:42.298Z,102138.03
2023-04-16T09:59:31.238Z,102146.63
2023-04-16T10:02:15.685Z,102146.25
2023-04-16T10:04:47.864Z,102148.69
2023-04-16T10:07:15.717Z,102154.22
2023-04-16T10:09:43.594Z,102151.19
2023-04-16T10:12:12.931Z,102160.44
2023-04-16T10:14:41.370Z,102148.88
2023-04-16T10:17:10.002Z,102137.38
2023-04-16T10:19:38.477Z,102144.25
2023-04-16T10:22:06.087Z,102143.44
2023-04-16T10:24:34.600Z,102148.84
2023-04-16T10:27:02.722Z,102153.66
2023-04-16T10:29:32.042Z,102151.00
2023-04-16T10:32:00.780Z,102157.38
2023-04-16T10:34:29.183Z,102157.19
2023-04-16T10:36:56.841Z,102160.09
2023-04-16T10:39:27.305Z,102154.03
2023-04-16T10:42:14.721Z,102157.50
2023-04-16T10:44:45.262Z,102148.47
2023-04-16T10:47:14.316Z,102152.75
2023-04-16T10:49:43.869Z,102151.78
2023-04-16T10:52:13.720Z,102161.91
2023-04-16T10:54:41.708Z,102161.66
2023-04-16T10:57:15.031Z,102162.16
2023-04-16T10:59:44.100Z,102164.34
2023-04-16T11:02:16.521Z,102163.75
2023-04-16T11:04:46.154Z,102164.56
2023-04-16T11:07:17.070Z,102165.44
2023-04-16T11:09:47.404Z,102173.66
2023-04-16T11:12:18.608Z,102171.19
2023-04-16T11:14:59.626Z,102170.84
2023-04-16T11:17:37.050Z,102172.53
2023-04-16T11:20:17.779Z,102172.53
2023-04-16T11:22:55.820Z,102174.13
2023-04-16T11:25:29.939Z,102164.47
2023-04-16T11:28:01.436Z,102168.25
2023-04-16T11:30:36.766Z,102163.59
2023-04-16T11:33:13.461Z,102169.56
2023-04-16T11:35:41.587Z,102166.94
2023-04-16T11:38:09.433Z,102178.66
2023-04-16T11:40:37.102Z,102170.38
2023-04-16T11:43:15.456Z,102178.19
2023-04-16T11:46:12.860Z,102174.53
2023-04-16T11:48:52.663Z,102182.09
2023-04-16T11:51:21.886Z,102174.81
2023-04-16T11:53:52.861Z,102181.41
2023-04-16T11:56:30.898Z,102181.66
2023-04-16T11:59:15.944Z,102179.31
2023-04-16T12:01:49.241Z,102181.25
2023-04-16T12:04:19.796Z,102173.88
2023-04-16T12:07:07.187Z,102185.09
2023-04-16T12:09:37.846Z,102187.63
2023-04-16T12:12:31.143Z,102186.53
2023-04-16T12:15:03.898Z,102184.69
2023-04-16T12:17:34.009Z,102182.50
2023-04-16T12:20:10.062Z,102188.94
2023-04-16T12:22:39.829Z,102186.25
2023-04-16T12:25:12.468Z,102188.00
2023-04-16T12:27:54.316Z,102193.09
2023-04-16T12:30:23.549Z,102188.44
2023-04-16T12:33:10.858Z,102190.41
2023-04-16T12:35:38.656Z,102201.31
2023-04-16T12:38:06.396Z,102194.59
2023-04-16T12:40:34.739Z,102202.06
2023-04-16T12:43:02.862Z,102191.66
2023-04-16T12:45:30.468Z,102202.44
2023-04-16T12:47:58.224Z,102195.75
2023-04-16T12:50:26.107Z,102188.03
2023-04-16T12:52:53.663Z,102191.22
2023-04-16T12:55:21.796Z,102203.59
2023-04-16T12:57:50.889Z,102203.84
2023-04-16T13:00:20.846Z,102203.69
2023-04-16T13:02:48.736Z,102203.34
2023-04-16T13:05:18.451Z,102192.56
2023-04-16T13:07:46.375Z,102194.75
2023-04-16T13:10:14.031Z,102195.56
2023-04-16T13:12:41.722Z,102200.78
2023-04-16T13:15:10.603Z,102207.56
2023-04-16T13:17:38.195Z,102205.19
2023-04-16T13:20:06.255Z,102197.47
2023-04-16T13:22:33.970Z,102205.78
2023-04-16T13:25:01.561Z,102206.38
2023-04-16T13:27:29.121Z,102196.94
2023-04-16T13:29:56.673Z,102187.72
2023-04-16T13:32:24.547Z,102183.41
2023-04-16T13:34:52.212Z,102193.13
2023-04-16T13:37:19.872Z,102196.41
2023-04-16T13:39:47.486Z,102199.56
2023-04-16T13:42:15.426Z,102195.03
2023-04-16T13:44:42.948Z,102199.19
2023-04-16T13:47:11.375Z,102197.22
2023-04-16T13:49:38.959Z,102195.38
2023-04-16T13:52:06.594Z,102195.75
2023-04-16T13:54:34.356Z,102203.41
2023-04-16T13:57:01.932Z,102193.00
2023-04-16T13:59:29.504Z,102200.97
2023-04-16T14:01:57.718Z,102199.69
2023-04-16T14:04:25.736Z,102201.81
2023-04-16T14:06:53.420Z,102191.56
2023-04-16T14:09:21.447Z,102190.19
2023-04-16T14:11:49.141Z,102192.13
2023-04-16T14:14:16.664Z,102190.03
2023-04-16T14:16:44.540Z,102181.69
2023-04-16T14:19:12.376Z,102191.94
2023-04-16T14:21:40.372Z,102182.94
2023-04-16T14:24:09.322Z,102180.44
2023-04-16T14:26:37.009Z,102178.31
2023-04-16T14:29:05.598Z,102182.34
2023-04-16T14:31:33.633Z,102181.47
2023-04-16T14:34:01.419Z,102193.25
2023-04-16T14:36:31.345Z,102188.09
2023-04-16T14:38:59.603Z,102188.09
2023-04-16T14:41:27.291Z,102185.25
2023-04-16T14:43:54.860Z,102183.41
2023-04-16T14:46:22.444Z,102188.06
2023-04-16T14:48:50.101Z,102174.72
2023-04-16T14:51:17.616Z,102182.66
2023-04-16T14:53:45.245Z,102180.13
2023-04-16T14:56:13.706Z,102187.34
2023-04-16T14:58:42.957Z,102183.78
2023-04-16T15:01:10.727Z,102179.13
2023-04-16T15:03:38.530Z,102174.72
2023-04-16T15:06:06.348Z,102162.41
2023-04-16T15:08:34.915Z,102169.13
2023-04-16T15:11:02.620Z,102171.41
2023-04-16T15:13:34.142Z,102174.84
2023-04-16T15:16:02.505Z,102188.16
2023-04-16T15:18:30.697Z,102194.41
2023-04-16T15:20:58.425Z,102203.50
2023-04-16T15:23:26.094Z,102196.53
2023-04-16T15:25:53.636Z,102194.34
2023-04-16T15:28:21.226Z,102193.13
2023-04-16T15:30:48.856Z,102193.31
2023-04-16T15:33:16.605Z,102191.09
2023-04-16T15:35:44.492Z,102191.66
2023-04-16T15:38:12.033Z,102190.41
2023-04-16T15:40:41.088Z,102192.00
2023-04-16T15:43:09.296Z,102192.28
2023-04-16T15:45:37.596Z,102190.91
2023-04-16T15:48:06.129Z,102194.19
2023-04-16T15:50:33.947Z,102197.59
2023-04-16T15:53:01.756Z,102195.50
2023-04-16T15:55:29.385Z,102196.19
2023-04-16T15:57:56.998Z,102205.13
2023-04-16T16:00:24.828Z,102194.34
2023-04-16T16:02:52.719Z,102188.69
2023-04-16T16:05:20.546Z,102194.06
2023-04-16T16:07:48.458Z,102192.22
2023-04-16T16:10:16.049Z,102194.88
2023-04-16T16:12:43.628Z,102192.03
2023-04-16T16:15:11.443Z,102193.28
2023-04-16T16:17:39.405Z,102195.56
2023-04-16T16:20:10.577Z,102190.38
2023-04-16T16:22:39.177Z,102189.69
2023-04-16T16:25:07.342Z,102185.97
2023-04-16T16:27:36.369Z,102190.09
2023-04-16T16:30:06.656Z,102188.06
2023-04-16T16:32:34.434Z,102193.88
2023-04-16T16:35:02.137Z,102190.72
2023-04-16T16:37:30.402Z,102194.53
2023-04-16T16:39:57.918Z,102199.03
2023-04-16T16:42:26.682Z,102194.41
2023-04-16T16:44:56.668Z,102186.72
2023-04-16T16:47:25.237Z,102192.06
2023-04-16T16:49:55.077Z,102187.94
2023-04-16T16:52:24.242Z,102183.19
2023-04-16T16:54:53.622Z,102182.47
2023-04-16T16:57:21.217Z,102191.53
2023-04-16T16:59:50.433Z,102192.53
2023-04-16T17:02:18.747Z,102194.22
2023-04-16T17:04:46.458Z,102201.88
2023-04-16T17:07:14.038Z,102198.84
2023-04-16T17:09:41.640Z,102193.25
2023-04-16T17:12:09.196Z,102196.47
2023-04-16T17:14:36.751Z,102201.41
2023-04-16T17:17:04.429Z,102196.28
2023-04-16T17:19:33.424Z,102203.03
2023-04-16T17:22:01.119Z,102205.00
2023-04-16T17:24:29.145Z,102203.69
2023-04-16T17:26:59.090Z,102208.47
2023-04-16T17:29:26.713Z,102203.44
2023-04-16T17:31:54.327Z,102199.19
2023-04-16T17:34:22.456Z,102203.00
2023-04-16T17:36:53.057Z,102200.56
2023-04-16T17:39:21.064Z,102203.34
2023-04-16T17:41:54.335Z,102200.91
2023-04-16T17:44:23.248Z,102203.88
2023-04-16T17:46:50.947Z,102208.66
2023-04-16T17:49:18.556Z,102212.69
2023-04-16T17:51:46.413Z,102218.31
2023-04-16T17:54:13.994Z,102218.56
2023-04-16T17:56:42.074Z,102224.22
2023-04-16T17:59:09.661Z,102218.94
2023-04-16T18:01:37.502Z,102227.84
2023-04-16T18:04:05.389Z,102220.06
2023-04-16T18:06:33.245Z,102223.84
2023-04-16T18:09:00.922Z,102226.91
2023-04-16T18:11:30.686Z,102228.13
2023-04-16T18:13:58.971Z,102232.66
2023-04-16T18:16:26.762Z,102225.59
2023-04-16T18:18:54.489Z,102232.91
2023-04-16T18:21:22.155Z,102234.16
2023-04-16T18:23:49.851Z,102240.50
2023-04-16T18:26:20.462Z,102236.34
2023-04-16T18:28:48.650Z,102238.41
2023-04-16T18:31:19.068Z,102245.66
2023-04-16T18:33:55.528Z,102246.72
2023-04-16T18:36:23.765Z,102247.59
2023-04-16T18:39:01.091Z,102249.56
2023-04-16T18:41:30.882Z,102246.25
2023-04-16T18:43:58.748Z,102254.34
2023-04-16T18:46:27.529Z,102259.94
2023-04-16T18:48:55.434Z,102260.91
2023-04-16T18:51:23.436Z,102261.75
2023-04-16T18:53:51.372Z,102254.81
2023-04-16T18:56:19.031Z,102260.44
2023-04-16T18:58:47.836Z,102262.38
2023-04-16T19:01:16.640Z,102273.13
2023-04-16T19:03:44.972Z,102273.88
2023-04-16T19:06:12.511Z,102272.38
2023-04-16T19:08:40.127Z,102279.13
2023-04-16T19:11:16.364Z,102278.50
2023-04-16T19:13:44.070Z,102279.00
2023-04-16T19:16:12.411Z,102273.09
2023-04-16T19:18:40.231Z,102280.69
2023-04-16T19:21:10.070Z,102277.47
2023-04-16T19:23:37.744Z,102280.53
2023-04-16T19:26:05.547Z,102281.84
2023-04-16T19:28:33.369Z,102280.50
2023-04-16T19:31:01.139Z,102284.38
2023-04-16T19:33:28.944Z,102287.28
2023-04-16T19:35:56.559Z,102293.63
2023-04-16T19:38:24.187Z,102288.34
2023-04-16T19:40:52.023Z,102300.53
2023-04-16T19:43:19.648Z,102291.88
2023-04-16T19:45:53.528Z,102298.22
2023-04-16T19:48:21.527Z,102307.22
2023-04-16T19:50:49.341Z,102300.03
2023-04-16T19:53:21.246Z,102304.44
2023-04-16T19:55:48.822Z,102304.44
2023-04-16T19:58:16.419Z,102305.31
2023-04-16T20:00:44.109Z,102303.69
2023-04-16T20:03:11.734Z,102317.97
2023-04-16T20:05:39.302Z,102309.91
2023-04-16T20:08:07.243Z,102320.56
2023-04-16T20:10:34.896Z,102323.13
2023-04-16T20:13:02.594Z,102321.41
2023-04-16T20:15:30.200Z,102324.09
2023-04-16T20:17:57.850Z,102325.09
2023-04-16T20:20:25.571Z,102324.19
2023-04-16T20:22:53.208Z,102327.03
2023-04-16T20:25:21.601Z,102325.31
2023-04-16T20:27:49.322Z,102332.63
2023-04-16T20:30:16.938Z,102330.03
2023-04-16T20:32:44.522Z,102338.44
2023-04-16T20:35:12.232Z,102326.94
2023-04-16T20:37:42.254Z,102328.78
2023-04-16T20:40:10.831Z,102336.97
2023-04-16T20:42:38.598Z,102328.28
2023-04-16T20:45:07.381Z,102331.19
2023-04-16T20:47:35.192Z,102333.13
2023-04-16T20:50:03.877Z,102333.56
2023-04-16T20:52:31.446Z,102338.44
2023-04-16T20:54:59.039Z,102332.31
2023-04-16T20:57:28.171Z,102334.91
2023-04-16T20:59:56.559Z,102339.28
2023-04-16T21:02:24.451Z,102333.06
2023-04-16T21:04:52.497Z,102338.44
2023-04-16T21:07:20.089Z,102327.69
2023-04-16T21:09:47.653Z,102335.84
2023-04-16T21:12:15.553Z,102335.75
2023-04-16T21:14:43.853Z,102338.53
2023-04-16T21:17:11.375Z,102338.66
2023-04-16T21:19:40.231Z,102346.16
2023-04-16T21:22:07.844Z,102334.81
2023-04-16T21:24:35.359Z,102337.72
2023-04-16T21:27:03.388Z,102347.59
2023-04-16T21:29:31.093Z,102345.88
2023-04-16T21:31:58.637Z,102348.44
2023-04-16T21:34:26.618Z,102343.94
2023-04-16T21:36:54.187Z,102347.38
2023-04-16T21:39:21.938Z,102349.94
2023-04-16T21:41:49.558Z,102348.13
2023-04-16T21:44:17.283Z,102340.16
2023-04-16T21:46:44.868Z,102348.22
2023-04-16T21:49:12.750Z,102351.75
2023-04-16T21:51:43.103Z,102352.75
2023-04-16T21:54:10.723Z,102357.13
2023-04-16T21:56:38.934Z,102355.44
2023-04-16T21:59:06.577Z,102363.47
2023-04-16T22:01:34.158Z,102357.25
2023-04-16T22:04:02.182Z,102362.63
2023-04-16T22:06:29.830Z,102362.72
2023-04-16T22:08:58.970Z,102363.56
2023-04-16T22:11:26.549Z,102367.13
2023-04-16T22:13:57.890Z,102370.91
2023-04-16T22:16:25.862Z,102372.63
2023-04-16T22:18:55.061Z,102374.03
2023-04-16T22:21:23.080Z,102379.06
2023-04-16T22:23:51.032Z,102382.09
2023-04-16T22:26:18.629Z,102380.25
2023-04-16T22:28:46.698Z,102385.75
2023-04-16T22:31:14.397Z,102382.31
2023-04-16T22:33:41.990Z,102384.13
2023-04-16T22:36:09.705Z,102380.59
2023-04-16T22:38:38.853Z,102379.09
2023-04-16T22:41:06.467Z,102378.34
2023-04-16T22:43:37.059Z,102386.47
2023-04-16T22:46:06.706Z,102382.72
2023-04-16T22:48:36.503Z,102385.19
2023-04-16T22:51:05.556Z,102383.38
2023-04-16T22:53:33.105Z,102388.72
2023-04-16T22:56:00.724Z,102394.22
2023-04-16T22:58:28.273Z,102399.59
2023-04-16T23:01:01.579Z,102396.06
2023-04-16T23:03:29.357Z,102392.59
2023-04-16T23:05:56.996Z,102402.34
2023-04-16T23:08:24.574Z,102389.91
2023-04-16T23:10:52.135Z,102399.03
2023-04-16T23:13:19.737Z,102400.09
2023-04-16T23:15:47.496Z,102397.66
2023-04-16T23:18:15.473Z,102397.53
2023-04-16T23:20:42.995Z,102396.56
2023-04-16T23:23:11.307Z,102402.69
2023-04-16T23:25:41.346Z,102407.94
2023-04-16T23:28:08.894Z,102407.00
2023-04-16T23:30:36.485Z,102411.59
2023-04-16T23:33:04.705Z,102409.03
2023-04-16T23:35:32.310Z,102419.84
2023-04-16T23:38:00.042Z,102417.38
2023-04-16T23:40:27.518Z,102419.91
2023-04-16T23:42:55.151Z,102423.00
2023-04-16T23:45:22.833Z,102424.00
2023-04-16T23:47:50.925Z,102417.09
2023-04-16T23:50:18.552Z,102426.22
2023-04-16T23:52:46.234Z,102427.81
2023-04-16T23:55:13.817Z,102435.00
2023-04-16T23:57:41.406Z,102433.19
